sensor_id;sensor_type;location;lat;lon;timestamp;temperature;humidity
7796;DHT22;3942;51.518;6.912;2023-05-10T00:01:04;15.20;99.90
7796;DHT22;3942;51.518;6.912;2023-05-10T00:06:06;15.20;99.90
7796;DHT22;3942;51.518;6.912;2023-05-10T00:11:07;15.10;99.90
7796;DHT22;3942;51.518;6.912;2023-05-10T00:16:11;15.10;99.90
7796;DHT22;3942;51.518;6.912;2023-05-10T00:21:13;15.10;99.90
7796;DHT22;3942;51.518;6.912;2023-05-10T00:31:19;15.00;99.90
7796;DHT22;3942;51.518;6.912;2023-05-10T00:36:20;14.90;99.90
7796;DHT22;3942;51.518;6.912;2023-05-10T00:46:26;14.90;99.90
7796;DHT22;3942;51.518;6.912;2023-05-10T00:51:28;14.90;99.90
7796;DHT22;3942;51.518;6.912;2023-05-10T00:56:31;14.80;99.90
7796;DHT22;3942;51.518;6.912;2023-05-10T01:01:35;14.80;99.90
7796;DHT22;3942;51.518;6.912;2023-05-10T01:06:37;14.80;99.90
7796;DHT22;3942;51.518;6.912;2023-05-10T01:11:40;14.80;99.90
7796;DHT22;3942;51.518;6.912;2023-05-10T01:16:44;14.80;99.90
7796;DHT22;3942;51.518;6.912;2023-05-10T01:21:53;14.80;99.90
7796;DHT22;3942;51.518;6.912;2023-05-10T01:27:14;14.80;99.90
7796;DHT22;3942;51.518;6.912;2023-05-10T01:32:30;14.70;99.90
7796;DHT22;3942;51.518;6.912;2023-05-10T01:37:40;14.70;99.90
7796;DHT22;3942;51.518;6.912;2023-05-10T01:42:47;14.70;99.90
7796;DHT22;3942;51.518;6.912;2023-05-10T01:47:58;14.70;99.90
7796;DHT22;3942;51.518;6.912;2023-05-10T01:53:05;14.70;99.90
7796;DHT22;3942;51.518;6.912;2023-05-10T01:58:09;14.70;99.90
7796;DHT22;3942;51.518;6.912;2023-05-10T02:03:13;14.70;99.90
7796;DHT22;3942;51.518;6.912;2023-05-10T02:08:17;14.70;99.90
7796;DHT22;3942;51.518;6.912;2023-05-10T02:13:21;14.60;99.90
7796;DHT22;3942;51.518;6.912;2023-05-10T02:18:27;14.60;99.90
7796;DHT22;3942;51.518;6.912;2023-05-10T02:23:29;14.70;99.90
7796;DHT22;3942;51.518;6.912;2023-05-10T02:28:32;14.60;99.90
7796;DHT22;3942;51.518;6.912;2023-05-10T02:33:37;14.70;99.90
7796;DHT22;3942;51.518;6.912;2023-05-10T02:38:40;14.50;99.90
7796;DHT22;3942;51.518;6.912;2023-05-10T02:43:43;14.60;99.90
7796;DHT22;3942;51.518;6.912;2023-05-10T02:48:47;14.70;99.90
7796;DHT22;3942;51.518;6.912;2023-05-10T02:53:49;14.60;99.90
7796;DHT22;3942;51.518;6.912;2023-05-10T02:58:52;14.70;99.90
7796;DHT22;3942;51.518;6.912;2023-05-10T03:03:55;14.60;99.90
7796;DHT22;3942;51.518;6.912;2023-05-10T03:08:57;14.50;99.90
7796;DHT22;3942;51.518;6.912;2023-05-10T03:14:10;14.70;99.90
7796;DHT22;3942;51.518;6.912;2023-05-10T03:19:22;14.80;99.90
7796;DHT22;3942;51.518;6.912;2023-05-10T03:24:27;14.60;99.90
7796;DHT22;3942;51.518;6.912;2023-05-10T03:29:30;14.70;99.90
7796;DHT22;3942;51.518;6.912;2023-05-10T03:34:33;14.70;99.90
7796;DHT22;3942;51.518;6.912;2023-05-10T03:39:36;14.70;99.90
7796;DHT22;3942;51.518;6.912;2023-05-10T03:44:39;14.60;99.90
7796;DHT22;3942;51.518;6.912;2023-05-10T03:49:42;14.60;99.90
7796;DHT22;3942;51.518;6.912;2023-05-10T03:54:44;14.60;99.90
7796;DHT22;3942;51.518;6.912;2023-05-10T03:59:45;14.70;99.90
7796;DHT22;3942;51.518;6.912;2023-05-10T04:04:49;14.70;99.90
7796;DHT22;3942;51.518;6.912;2023-05-10T04:09:51;14.70;99.90
7796;DHT22;3942;51.518;6.912;2023-05-10T04:14:52;14.80;99.90
7796;DHT22;3942;51.518;6.912;2023-05-10T04:19:56;14.60;99.90
7796;DHT22;3942;51.518;6.912;2023-05-10T04:30:00;14.60;99.90
7796;DHT22;3942;51.518;6.912;2023-05-10T04:35:03;14.60;99.90
7796;DHT22;3942;51.518;6.912;2023-05-10T04:40:06;14.60;99.90
7796;DHT22;3942;51.518;6.912;2023-05-10T04:45:09;14.60;99.90
7796;DHT22;3942;51.518;6.912;2023-05-10T04:50:12;14.70;99.90
7796;DHT22;3942;51.518;6.912;2023-05-10T04:55:14;14.70;99.90
7796;DHT22;3942;51.518;6.912;2023-05-10T05:00:17;14.70;99.90
7796;DHT22;3942;51.518;6.912;2023-05-10T05:05:20;14.70;99.90
7796;DHT22;3942;51.518;6.912;2023-05-10T05:15:24;14.70;99.90
7796;DHT22;3942;51.518;6.912;2023-05-10T05:20:28;14.70;99.90
7796;DHT22;3942;51.518;6.912;2023-05-10T05:25:30;14.70;99.90
7796;DHT22;3942;51.518;6.912;2023-05-10T05:30:31;14.70;99.90
7796;DHT22;3942;51.518;6.912;2023-05-10T05:35:35;14.70;99.90
7796;DHT22;3942;51.518;6.912;2023-05-10T05:40:36;14.70;99.90
7796;DHT22;3942;51.518;6.912;2023-05-10T05:50:42;14.60;99.90
7796;DHT22;3942;51.518;6.912;2023-05-10T05:55:51;14.70;99.90
7796;DHT22;3942;51.518;6.912;2023-05-10T06:00:54;14.90;99.90
7796;DHT22;3942;51.518;6.912;2023-05-10T06:05:57;14.90;99.90
7796;DHT22;3942;51.518;6.912;2023-05-10T06:16:01;15.10;99.90
7796;DHT22;3942;51.518;6.912;2023-05-10T06:21:05;15.00;99.90
7796;DHT22;3942;51.518;6.912;2023-05-10T06:36:13;14.90;99.90
7796;DHT22;3942;51.518;6.912;2023-05-10T06:41:15;15.00;99.90
7796;DHT22;3942;51.518;6.912;2023-05-10T06:46:17;15.10;99.90
7796;DHT22;3942;51.518;6.912;2023-05-10T06:51:20;15.20;99.90
7796;DHT22;3942;51.518;6.912;2023-05-10T06:56:23;15.10;99.90
7796;DHT22;3942;51.518;6.912;2023-05-10T07:01:24;15.00;99.90
7796;DHT22;3942;51.518;6.912;2023-05-10T07:06:28;15.00;99.90
7796;DHT22;3942;51.518;6.912;2023-05-10T07:11:30;14.90;99.90
7796;DHT22;3942;51.518;6.912;2023-05-10T07:16:31;15.20;99.90
7796;DHT22;3942;51.518;6.912;2023-05-10T07:21:35;15.40;99.90
7796;DHT22;3942;51.518;6.912;2023-05-10T07:31:40;15.40;99.90
7796;DHT22;3942;51.518;6.912;2023-05-10T07:36:44;15.40;99.90
7796;DHT22;3942;51.518;6.912;2023-05-10T07:41:46;15.40;99.90
7796;DHT22;3942;51.518;6.912;2023-05-10T07:46:48;15.40;99.90
7796;DHT22;3942;51.518;6.912;2023-05-10T07:51:51;15.30;99.90
7796;DHT22;3942;51.518;6.912;2023-05-10T07:56:53;15.50;99.90
7796;DHT22;3942;51.518;6.912;2023-05-10T08:01:55;15.50;99.90
7796;DHT22;3942;51.518;6.912;2023-05-10T08:06:58;15.80;99.90
7796;DHT22;3942;51.518;6.912;2023-05-10T08:11:59;15.80;99.90
7796;DHT22;3942;51.518;6.912;2023-05-10T08:17:01;15.70;99.90
7796;DHT22;3942;51.518;6.912;2023-05-10T08:22:05;15.80;99.90
7796;DHT22;3942;51.518;6.912;2023-05-10T08:27:08;15.60;99.90
7796;DHT22;3942;51.518;6.912;2023-05-10T08:32:10;15.80;99.90
7796;DHT22;3942;51.518;6.912;2023-05-10T08:37:13;15.90;99.90
7796;DHT22;3942;51.518;6.912;2023-05-10T08:42:19;16.00;99.90
7796;DHT22;3942;51.518;6.912;2023-05-10T08:47:21;16.30;99.90
7796;DHT22;3942;51.518;6.912;2023-05-10T08:52:26;16.20;99.90
7796;DHT22;3942;51.518;6.912;2023-05-10T09:02:31;16.60;99.90
7796;DHT22;3942;51.518;6.912;2023-05-10T09:07:35;17.10;99.90
7796;DHT22;3942;51.518;6.912;2023-05-10T09:12:37;17.20;99.90
7796;DHT22;3942;51.518;6.912;2023-05-10T09:17:40;17.10;99.90
7796;DHT22;3942;51.518;6.912;2023-05-10T09:22:44;17.10;99.90
7796;DHT22;3942;51.518;6.912;2023-05-10T09:27:47;16.80;99.90
7796;DHT22;3942;51.518;6.912;2023-05-10T09:32:50;16.50;99.90
7796;DHT22;3942;51.518;6.912;2023-05-10T09:37:54;16.90;99.90
7796;DHT22;3942;51.518;6.912;2023-05-10T09:42:57;16.90;99.90
7796;DHT22;3942;51.518;6.912;2023-05-10T09:48:01;16.80;1.00
7796;DHT22;3942;51.518;6.912;2023-05-10T09:53:04;16.40;1.00
7796;DHT22;3942;51.518;6.912;2023-05-10T09:58:07;16.30;1.00
7796;DHT22;3942;51.518;6.912;2023-05-10T10:03:15;16.10;99.90
7796;DHT22;3942;51.518;6.912;2023-05-10T10:08:18;16.40;1.00
7796;DHT22;3942;51.518;6.912;2023-05-10T10:18:23;16.70;99.90
7796;DHT22;3942;51.518;6.912;2023-05-10T10:23:28;16.60;1.00
7796;DHT22;3942;51.518;6.912;2023-05-10T10:28:36;16.60;1.00
7796;DHT22;3942;51.518;6.912;2023-05-10T10:33:56;16.20;99.90
7796;DHT22;3942;51.518;6.912;2023-05-10T10:39:07;15.90;99.90
7796;DHT22;3942;51.518;6.912;2023-05-10T10:44:38;15.90;1.00
7796;DHT22;3942;51.518;6.912;2023-05-10T10:49:50;15.90;1.00
7796;DHT22;3942;51.518;6.912;2023-05-10T10:54:58;15.80;99.90
7796;DHT22;3942;51.518;6.912;2023-05-10T11:00:20;15.90;99.90
7796;DHT22;3942;51.518;6.912;2023-05-10T11:05:37;15.90;99.90
7796;DHT22;3942;51.518;6.912;2023-05-10T11:10:48;16.10;99.90
7796;DHT22;3942;51.518;6.912;2023-05-10T11:15:50;16.30;99.90
7796;DHT22;3942;51.518;6.912;2023-05-10T11:20:52;16.20;5.90
7796;DHT22;3942;51.518;6.912;2023-05-10T11:25:59;18.80;1.00
7796;DHT22;3942;51.518;6.912;2023-05-10T11:41:08;16.50;99.90
7796;DHT22;3942;51.518;6.912;2023-05-10T11:46:11;16.50;99.90
7796;DHT22;3942;51.518;6.912;2023-05-10T11:51:13;16.60;31.30
7796;DHT22;3942;51.518;6.912;2023-05-10T11:56:17;16.60;99.90
7796;DHT22;3942;51.518;6.912;2023-05-10T12:01:20;16.40;1.00
7796;DHT22;3942;51.518;6.912;2023-05-10T12:06:22;16.40;85.40
7796;DHT22;3942;51.518;6.912;2023-05-10T12:11:27;16.40;97.00
7796;DHT22;3942;51.518;6.912;2023-05-10T12:16:29;16.40;1.00
7796;DHT22;3942;51.518;6.912;2023-05-10T12:21:32;16.40;1.00
7796;DHT22;3942;51.518;6.912;2023-05-10T12:26:35;16.50;1.00
7796;DHT22;3942;51.518;6.912;2023-05-10T12:31:49;16.90;99.90
7796;DHT22;3942;51.518;6.912;2023-05-10T12:36:52;17.20;1.00
7796;DHT22;3942;51.518;6.912;2023-05-10T12:41:55;17.30;1.00
7796;DHT22;3942;51.518;6.912;2023-05-10T12:51:59;17.40;99.90
7796;DHT22;3942;51.518;6.912;2023-05-10T12:57:03;17.50;1.00
7796;DHT22;3942;51.518;6.912;2023-05-10T13:07:07;17.60;1.00
7796;DHT22;3942;51.518;6.912;2023-05-10T13:12:10;17.80;99.90
7796;DHT22;3942;51.518;6.912;2023-05-10T13:22:14;18.20;99.90
7796;DHT22;3942;51.518;6.912;2023-05-10T13:27:17;18.50;99.90
7796;DHT22;3942;51.518;6.912;2023-05-10T13:32:19;18.30;1.00
7796;DHT22;3942;51.518;6.912;2023-05-10T13:37:21;18.30;1.00
7796;DHT22;3942;51.518;6.912;2023-05-10T13:42:24;18.30;1.00
7796;DHT22;3942;51.518;6.912;2023-05-10T13:47:26;18.50;1.00
7796;DHT22;3942;51.518;6.912;2023-05-10T13:57:32;18.30;99.90
7796;DHT22;3942;51.518;6.912;2023-05-10T14:02:36;18.20;99.90
7796;DHT22;3942;51.518;6.912;2023-05-10T14:07:38;18.50;99.90
7796;DHT22;3942;51.518;6.912;2023-05-10T14:12:41;18.30;99.90
7796;DHT22;3942;51.518;6.912;2023-05-10T14:17:43;18.40;82.00
7796;DHT22;3942;51.518;6.912;2023-05-10T14:27:48;18.60;1.00
7796;DHT22;3942;51.518;6.912;2023-05-10T14:42:58;18.70;99.90
7796;DHT22;3942;51.518;6.912;2023-05-10T14:48:00;18.90;99.90
7796;DHT22;3942;51.518;6.912;2023-05-10T14:58:08;18.80;99.90
7796;DHT22;3942;51.518;6.912;2023-05-10T15:08:12;18.40;99.90
7796;DHT22;3942;51.518;6.912;2023-05-10T15:13:15;18.40;99.90
7796;DHT22;3942;51.518;6.912;2023-05-10T15:18:17;18.40;99.90
7796;DHT22;3942;51.518;6.912;2023-05-10T15:23:19;18.50;1.00
7796;DHT22;3942;51.518;6.912;2023-05-10T15:28:22;18.50;1.00
7796;DHT22;3942;51.518;6.912;2023-05-10T15:33:24;18.50;1.00
7796;DHT22;3942;51.518;6.912;2023-05-10T15:43:31;18.50;1.00
7796;DHT22;3942;51.518;6.912;2023-05-10T15:53:35;18.40;1.00
7796;DHT22;3942;51.518;6.912;2023-05-10T15:58:39;18.00;99.90
7796;DHT22;3942;51.518;6.912;2023-05-10T16:13:47;17.30;1.00
7796;DHT22;3942;51.518;6.912;2023-05-10T16:18:48;17.10;1.00
7796;DHT22;3942;51.518;6.912;2023-05-10T16:28:54;16.50;99.90
7796;DHT22;3942;51.518;6.912;2023-05-10T16:38:58;16.40;1.00
7796;DHT22;3942;51.518;6.912;2023-05-10T16:44:01;16.40;1.00
7796;DHT22;3942;51.518;6.912;2023-05-10T16:54:05;16.30;86.30
7796;DHT22;3942;51.518;6.912;2023-05-10T16:59:08;16.20;99.90
7796;DHT22;3942;51.518;6.912;2023-05-10T17:04:10;16.20;99.90
7796;DHT22;3942;51.518;6.912;2023-05-10T17:09:12;16.20;99.90
7796;DHT22;3942;51.518;6.912;2023-05-10T17:14:15;16.40;99.90
7796;DHT22;3942;51.518;6.912;2023-05-10T17:24:20;16.30;99.90
7796;DHT22;3942;51.518;6.912;2023-05-10T17:29:23;16.30;99.90
7796;DHT22;3942;51.518;6.912;2023-05-10T17:34:25;16.40;99.90
7796;DHT22;3942;51.518;6.912;2023-05-10T17:39:27;16.40;99.90
7796;DHT22;3942;51.518;6.912;2023-05-10T17:44:30;16.50;99.90
7796;DHT22;3942;51.518;6.912;2023-05-10T17:49:32;16.60;99.90
7796;DHT22;3942;51.518;6.912;2023-05-10T17:54:33;16.60;99.90
7796;DHT22;3942;51.518;6.912;2023-05-10T17:59:37;16.40;99.90
7796;DHT22;3942;51.518;6.912;2023-05-10T18:04:38;16.50;46.90
7796;DHT22;3942;51.518;6.912;2023-05-10T18:09:40;16.50;99.90
7796;DHT22;3942;51.518;6.912;2023-05-10T18:14:43;16.50;99.90
7796;DHT22;3942;51.518;6.912;2023-05-10T18:19:45;16.50;68.50
7796;DHT22;3942;51.518;6.912;2023-05-10T18:24:47;16.30;99.90
7796;DHT22;3942;51.518;6.912;2023-05-10T18:29:50;16.40;99.90
7796;DHT22;3942;51.518;6.912;2023-05-10T18:34:52;16.20;99.90
7796;DHT22;3942;51.518;6.912;2023-05-10T18:39:54;16.30;99.90
7796;DHT22;3942;51.518;6.912;2023-05-10T18:44:58;16.20;99.90
7796;DHT22;3942;51.518;6.912;2023-05-10T18:50:02;16.20;99.90
7796;DHT22;3942;51.518;6.912;2023-05-10T18:55:05;16.20;99.90
7796;DHT22;3942;51.518;6.912;2023-05-10T19:00:10;16.20;99.90
7796;DHT22;3942;51.518;6.912;2023-05-10T19:05:13;16.10;99.90
7796;DHT22;3942;51.518;6.912;2023-05-10T19:10:15;16.10;99.90
7796;DHT22;3942;51.518;6.912;2023-05-10T19:15:18;15.90;99.90
7796;DHT22;3942;51.518;6.912;2023-05-10T19:20:20;16.00;99.90
7796;DHT22;3942;51.518;6.912;2023-05-10T19:25:22;15.90;99.90
7796;DHT22;3942;51.518;6.912;2023-05-10T19:30:30;15.90;99.90
7796;DHT22;3942;51.518;6.912;2023-05-10T19:35:32;15.90;99.90
7796;DHT22;3942;51.518;6.912;2023-05-10T19:40:33;15.90;99.90
7796;DHT22;3942;51.518;6.912;2023-05-10T19:45:37;15.80;99.90
7796;DHT22;3942;51.518;6.912;2023-05-10T19:50:38;15.70;99.90
7796;DHT22;3942;51.518;6.912;2023-05-10T19:55:40;15.70;99.90
7796;DHT22;3942;51.518;6.912;2023-05-10T20:00:43;15.60;99.90
7796;DHT22;3942;51.518;6.912;2023-05-10T20:05:46;15.50;99.90
7796;DHT22;3942;51.518;6.912;2023-05-10T20:15:54;15.40;99.90
7796;DHT22;3942;51.518;6.912;2023-05-10T20:20:58;15.50;99.90
7796;DHT22;3942;51.518;6.912;2023-05-10T20:26:00;15.50;99.90
7796;DHT22;3942;51.518;6.912;2023-05-10T20:31:03;15.40;99.90
7796;DHT22;3942;51.518;6.912;2023-05-10T20:36:05;15.40;99.90
7796;DHT22;3942;51.518;6.912;2023-05-10T20:46:12;15.40;99.90
7796;DHT22;3942;51.518;6.912;2023-05-10T20:51:14;15.40;99.90
7796;DHT22;3942;51.518;6.912;2023-05-10T20:56:17;15.30;99.90
7796;DHT22;3942;51.518;6.912;2023-05-10T21:01:20;14.80;99.90
7796;DHT22;3942;51.518;6.912;2023-05-10T21:06:22;14.60;99.90
7796;DHT22;3942;51.518;6.912;2023-05-10T21:21:31;15.00;99.90
7796;DHT22;3942;51.518;6.912;2023-05-10T21:26:33;15.00;99.90
7796;DHT22;3942;51.518;6.912;2023-05-10T21:31:36;15.00;99.90
7796;DHT22;3942;51.518;6.912;2023-05-10T21:36:38;15.00;99.90
7796;DHT22;3942;51.518;6.912;2023-05-10T21:41:40;15.10;99.90
7796;DHT22;3942;51.518;6.912;2023-05-10T21:46:43;14.90;99.90
7796;DHT22;3942;51.518;6.912;2023-05-10T22:01:51;14.90;99.90
7796;DHT22;3942;51.518;6.912;2023-05-10T22:16:59;14.90;99.90
7796;DHT22;3942;51.518;6.912;2023-05-10T22:22:01;14.90;99.90
7796;DHT22;3942;51.518;6.912;2023-05-10T22:27:04;14.80;99.90
7796;DHT22;3942;51.518;6.912;2023-05-10T22:32:07;14.80;99.90
7796;DHT22;3942;51.518;6.912;2023-05-10T22:37:10;14.80;99.90
7796;DHT22;3942;51.518;6.912;2023-05-10T22:47:17;14.70;99.90
7796;DHT22;3942;51.518;6.912;2023-05-10T22:52:19;14.70;99.90
7796;DHT22;3942;51.518;6.912;2023-05-10T22:57:21;14.70;99.90
7796;DHT22;3942;51.518;6.912;2023-05-10T23:02:24;14.70;99.90
7796;DHT22;3942;51.518;6.912;2023-05-10T23:07:26;14.70;99.90
7796;DHT22;3942;51.518;6.912;2023-05-10T23:12:28;14.50;99.90
7796;DHT22;3942;51.518;6.912;2023-05-10T23:17:32;14.70;99.90
7796;DHT22;3942;51.518;6.912;2023-05-10T23:22:33;14.70;99.90
7796;DHT22;3942;51.518;6.912;2023-05-10T23:27:35;14.70;99.90
7796;DHT22;3942;51.518;6.912;2023-05-10T23:32:38;14.80;99.90
7796;DHT22;3942;51.518;6.912;2023-05-10T23:37:40;14.80;99.90
7796;DHT22;3942;51.518;6.912;2023-05-10T23:47:46;14.70;99.90
7796;DHT22;3942;51.518;6.912;2023-05-10T23:57:50;14.70;99.90
